sensor_id;sensor_type;location;lat;lon;timestamp;P1;durP1;ratioP1;P2;durP2;ratioP2
19059;SDS011;9663;48.996;8.334;2023-04-25T00:01:24;4.60;;;1.30;;
19059;SDS011;9663;48.996;8.334;2023-04-25T00:03:50;3.20;;;1.17;;
19059;SDS011;9663;48.996;8.334;2023-04-25T00:06:16;2.80;;;1.20;;
19059;SDS011;9663;48.996;8.334;2023-04-25T00:08:42;2.95;;;1.27;;
19059;SDS011;9663;48.996;8.334;2023-04-25T00:11:09;3.75;;;1.20;;
19059;SDS011;9663;48.996;8.334;2023-04-25T00:13:35;2.50;;;1.17;;
19059;SDS011;9663;48.996;8.334;2023-04-25T00:16:01;2.83;;;1.08;;
19059;SDS011;9663;48.996;8.334;2023-04-25T00:18:27;3.75;;;1.33;;
19059;SDS011;9663;48.996;8.334;2023-04-25T00:20:58;2.63;;;1.15;;
19059;SDS011;9663;48.996;8.334;2023-04-25T00:23:23;3.22;;;1.17;;
19059;SDS011;9663;48.996;8.334;2023-04-25T00:25:49;2.53;;;1.15;;
19059;SDS011;9663;48.996;8.334;2023-04-25T00:28:15;2.72;;;1.20;;
19059;SDS011;9663;48.996;8.334;2023-04-25T00:30:42;2.05;;;1.00;;
19059;SDS011;9663;48.996;8.334;2023-04-25T00:33:08;2.38;;;1.17;;
19059;SDS011;9663;48.996;8.334;2023-04-25T00:35:34;2.70;;;1.10;;
19059;SDS011;9663;48.996;8.334;2023-04-25T00:38:01;2.15;;;1.10;;
19059;SDS011;9663;48.996;8.334;2023-04-25T00:40:27;3.10;;;1.38;;
19059;SDS011;9663;48.996;8.334;2023-04-25T00:42:53;2.80;;;1.17;;
19059;SDS011;9663;48.996;8.334;2023-04-25T00:45:19;2.80;;;1.27;;
19059;SDS011;9663;48.996;8.334;2023-04-25T00:47:45;3.15;;;1.23;;
19059;SDS011;9663;48.996;8.334;2023-04-25T00:50:12;2.72;;;1.00;;
19059;SDS011;9663;48.996;8.334;2023-04-25T00:52:40;2.25;;;1.08;;
19059;SDS011;9663;48.996;8.334;2023-04-25T00:55:08;2.50;;;1.10;;
19059;SDS011;9663;48.996;8.334;2023-04-25T00:57:36;3.42;;;1.20;;
19059;SDS011;9663;48.996;8.334;2023-04-25T01:00:03;3.45;;;1.10;;
19059;SDS011;9663;48.996;8.334;2023-04-25T01:02:49;2.47;;;1.02;;
19059;SDS011;9663;48.996;8.334;2023-04-25T01:05:15;2.75;;;1.20;;
19059;SDS011;9663;48.996;8.334;2023-04-25T01:07:41;2.97;;;1.15;;
19059;SDS011;9663;48.996;8.334;2023-04-25T01:10:07;3.63;;;1.45;;
19059;SDS011;9663;48.996;8.334;2023-04-25T01:12:34;3.35;;;1.20;;
19059;SDS011;9663;48.996;8.334;2023-04-25T01:15:00;2.95;;;1.17;;
19059;SDS011;9663;48.996;8.334;2023-04-25T01:17:25;2.60;;;1.25;;
19059;SDS011;9663;48.996;8.334;2023-04-25T01:19:52;2.85;;;1.20;;
19059;SDS011;9663;48.996;8.334;2023-04-25T01:22:18;3.83;;;1.10;;
19059;SDS011;9663;48.996;8.334;2023-04-25T01:24:44;2.83;;;1.10;;
19059;SDS011;9663;48.996;8.334;2023-04-25T01:27:10;2.70;;;1.05;;
19059;SDS011;9663;48.996;8.334;2023-04-25T01:29:36;2.33;;;1.10;;
19059;SDS011;9663;48.996;8.334;2023-04-25T01:32:02;3.00;;;1.20;;
19059;SDS011;9663;48.996;8.334;2023-04-25T01:34:30;2.50;;;1.15;;
19059;SDS011;9663;48.996;8.334;2023-04-25T01:36:55;2.80;;;1.30;;
19059;SDS011;9663;48.996;8.334;2023-04-25T01:39:21;3.08;;;1.20;;
19059;SDS011;9663;48.996;8.334;2023-04-25T01:41:47;2.60;;;1.10;;
19059;SDS011;9663;48.996;8.334;2023-04-25T01:44:14;2.80;;;1.10;;
19059;SDS011;9663;48.996;8.334;2023-04-25T01:46:40;2.05;;;0.90;;
19059;SDS011;9663;48.996;8.334;2023-04-25T01:49:06;3.63;;;1.10;;
19059;SDS011;9663;48.996;8.334;2023-04-25T01:51:32;2.83;;;1.27;;
19059;SDS011;9663;48.996;8.334;2023-04-25T01:53:58;2.53;;;1.00;;
19059;SDS011;9663;48.996;8.334;2023-04-25T01:56:25;2.50;;;1.20;;
19059;SDS011;9663;48.996;8.334;2023-04-25T01:58:55;3.10;;;1.30;;
19059;SDS011;9663;48.996;8.334;2023-04-25T02:01:21;2.97;;;1.30;;
19059;SDS011;9663;48.996;8.334;2023-04-25T02:03:46;2.72;;;1.05;;
19059;SDS011;9663;48.996;8.334;2023-04-25T02:06:12;2.58;;;1.10;;
19059;SDS011;9663;48.996;8.334;2023-04-25T02:08:37;2.95;;;1.40;;
19059;SDS011;9663;48.996;8.334;2023-04-25T02:11:03;2.67;;;1.20;;
19059;SDS011;9663;48.996;8.334;2023-04-25T02:13:29;2.80;;;1.15;;
19059;SDS011;9663;48.996;8.334;2023-04-25T02:15:54;2.60;;;1.10;;
19059;SDS011;9663;48.996;8.334;2023-04-25T02:18:20;2.53;;;1.20;;
19059;SDS011;9663;48.996;8.334;2023-04-25T02:20:46;2.60;;;1.20;;
19059;SDS011;9663;48.996;8.334;2023-04-25T02:23:12;2.72;;;1.23;;
19059;SDS011;9663;48.996;8.334;2023-04-25T02:25:38;3.35;;;1.30;;
19059;SDS011;9663;48.996;8.334;2023-04-25T02:28:04;3.40;;;1.40;;
19059;SDS011;9663;48.996;8.334;2023-04-25T02:30:29;2.63;;;1.17;;
19059;SDS011;9663;48.996;8.334;2023-04-25T02:32:55;2.95;;;1.13;;
19059;SDS011;9663;48.996;8.334;2023-04-25T02:35:21;2.50;;;1.10;;
19059;SDS011;9663;48.996;8.334;2023-04-25T02:37:47;2.65;;;1.15;;
19059;SDS011;9663;48.996;8.334;2023-04-25T02:40:12;2.85;;;1.23;;
19059;SDS011;9663;48.996;8.334;2023-04-25T02:42:38;3.00;;;1.30;;
19059;SDS011;9663;48.996;8.334;2023-04-25T02:45:04;3.15;;;1.33;;
19059;SDS011;9663;48.996;8.334;2023-04-25T02:47:30;3.55;;;1.23;;
19059;SDS011;9663;48.996;8.334;2023-04-25T02:49:56;3.65;;;1.23;;
19059;SDS011;9663;48.996;8.334;2023-04-25T02:52:21;3.67;;;1.17;;
19059;SDS011;9663;48.996;8.334;2023-04-25T02:54:47;3.33;;;1.30;;
19059;SDS011;9663;48.996;8.334;2023-04-25T02:57:13;3.20;;;1.30;;
19059;SDS011;9663;48.996;8.334;2023-04-25T02:59:39;3.72;;;1.30;;
19059;SDS011;9663;48.996;8.334;2023-04-25T03:02:05;2.92;;;1.20;;
19059;SDS011;9663;48.996;8.334;2023-04-25T03:04:31;2.70;;;1.20;;
19059;SDS011;9663;48.996;8.334;2023-04-25T03:06:58;2.70;;;1.30;;
19059;SDS011;9663;48.996;8.334;2023-04-25T03:09:24;2.97;;;1.08;;
19059;SDS011;9663;48.996;8.334;2023-04-25T03:11:49;2.80;;;1.23;;
19059;SDS011;9663;48.996;8.334;2023-04-25T03:14:15;2.70;;;1.45;;
19059;SDS011;9663;48.996;8.334;2023-04-25T03:16:41;2.63;;;1.17;;
19059;SDS011;9663;48.996;8.334;2023-04-25T03:19:06;2.92;;;1.33;;
19059;SDS011;9663;48.996;8.334;2023-04-25T03:21:32;2.50;;;1.10;;
19059;SDS011;9663;48.996;8.334;2023-04-25T03:24:00;3.58;;;1.20;;
19059;SDS011;9663;48.996;8.334;2023-04-25T03:26:28;2.50;;;1.10;;
19059;SDS011;9663;48.996;8.334;2023-04-25T03:28:54;3.05;;;1.13;;
19059;SDS011;9663;48.996;8.334;2023-04-25T03:31:20;3.13;;;1.17;;
19059;SDS011;9663;48.996;8.334;2023-04-25T03:33:46;2.50;;;1.10;;
19059;SDS011;9663;48.996;8.334;2023-04-25T03:36:12;2.65;;;1.20;;
19059;SDS011;9663;48.996;8.334;2023-04-25T03:38:38;2.17;;;1.15;;
19059;SDS011;9663;48.996;8.334;2023-04-25T03:41:03;2.65;;;0.90;;
19059;SDS011;9663;48.996;8.334;2023-04-25T03:43:29;3.70;;;1.20;;
19059;SDS011;9663;48.996;8.334;2023-04-25T03:45:55;3.55;;;1.23;;
19059;SDS011;9663;48.996;8.334;2023-04-25T03:48:21;2.90;;;1.23;;
19059;SDS011;9663;48.996;8.334;2023-04-25T03:50:47;3.75;;;1.20;;
19059;SDS011;9663;48.996;8.334;2023-04-25T03:53:13;2.60;;;1.08;;
19059;SDS011;9663;48.996;8.334;2023-04-25T03:55:38;2.25;;;1.02;;
19059;SDS011;9663;48.996;8.334;2023-04-25T03:58:05;2.85;;;1.20;;
19059;SDS011;9663;48.996;8.334;2023-04-25T04:00:30;2.75;;;1.20;;
19059;SDS011;9663;48.996;8.334;2023-04-25T04:02:56;2.38;;;1.15;;
19059;SDS011;9663;48.996;8.334;2023-04-25T04:05:22;2.58;;;1.17;;
19059;SDS011;9663;48.996;8.334;2023-04-25T04:07:48;2.50;;;1.10;;
19059;SDS011;9663;48.996;8.334;2023-04-25T04:10:13;3.30;;;1.20;;
19059;SDS011;9663;48.996;8.334;2023-04-25T04:12:39;2.17;;;1.05;;
19059;SDS011;9663;48.996;8.334;2023-04-25T04:15:05;2.53;;;1.17;;
19059;SDS011;9663;48.996;8.334;2023-04-25T04:17:32;2.53;;;1.13;;
19059;SDS011;9663;48.996;8.334;2023-04-25T04:19:58;3.17;;;1.20;;
19059;SDS011;9663;48.996;8.334;2023-04-25T04:22:24;2.80;;;1.10;;
19059;SDS011;9663;48.996;8.334;2023-04-25T04:24:50;2.72;;;1.27;;
19059;SDS011;9663;48.996;8.334;2023-04-25T04:27:19;2.22;;;1.10;;
19059;SDS011;9663;48.996;8.334;2023-04-25T04:29:46;2.58;;;1.10;;
19059;SDS011;9663;48.996;8.334;2023-04-25T04:32:12;2.38;;;1.08;;
19059;SDS011;9663;48.996;8.334;2023-04-25T04:34:39;2.85;;;1.25;;
19059;SDS011;9663;48.996;8.334;2023-04-25T04:37:06;3.25;;;1.20;;
19059;SDS011;9663;48.996;8.334;2023-04-25T04:39:32;2.53;;;1.20;;
19059;SDS011;9663;48.996;8.334;2023-04-25T04:41:59;3.20;;;1.30;;
19059;SDS011;9663;48.996;8.334;2023-04-25T04:44:26;2.72;;;1.30;;
19059;SDS011;9663;48.996;8.334;2023-04-25T04:46:53;2.83;;;1.30;;
19059;SDS011;9663;48.996;8.334;2023-04-25T04:49:19;2.50;;;1.17;;
19059;SDS011;9663;48.996;8.334;2023-04-25T04:51:45;3.40;;;1.48;;
19059;SDS011;9663;48.996;8.334;2023-04-25T04:54:12;2.67;;;1.25;;
19059;SDS011;9663;48.996;8.334;2023-04-25T04:56:38;2.65;;;1.10;;
19059;SDS011;9663;48.996;8.334;2023-04-25T04:59:04;3.08;;;1.40;;
19059;SDS011;9663;48.996;8.334;2023-04-25T05:01:29;3.25;;;1.40;;
19059;SDS011;9663;48.996;8.334;2023-04-25T05:03:56;2.95;;;1.42;;
19059;SDS011;9663;48.996;8.334;2023-04-25T05:06:25;2.22;;;1.10;;
19059;SDS011;9663;48.996;8.334;2023-04-25T05:08:54;2.95;;;1.20;;
19059;SDS011;9663;48.996;8.334;2023-04-25T05:11:20;2.97;;;1.50;;
19059;SDS011;9663;48.996;8.334;2023-04-25T05:13:47;2.97;;;1.38;;
19059;SDS011;9663;48.996;8.334;2023-04-25T05:16:13;3.05;;;1.33;;
19059;SDS011;9663;48.996;8.334;2023-04-25T05:18:39;3.10;;;1.30;;
19059;SDS011;9663;48.996;8.334;2023-04-25T05:21:05;3.80;;;1.63;;
19059;SDS011;9663;48.996;8.334;2023-04-25T05:23:31;2.90;;;1.30;;
19059;SDS011;9663;48.996;8.334;2023-04-25T05:25:57;2.65;;;1.20;;
19059;SDS011;9663;48.996;8.334;2023-04-25T05:28:24;3.10;;;1.40;;
19059;SDS011;9663;48.996;8.334;2023-04-25T05:30:49;3.20;;;1.40;;
19059;SDS011;9663;48.996;8.334;2023-04-25T05:33:15;3.85;;;1.55;;
19059;SDS011;9663;48.996;8.334;2023-04-25T05:35:41;3.03;;;1.33;;
19059;SDS011;9663;48.996;8.334;2023-04-25T05:38:07;3.20;;;1.58;;
19059;SDS011;9663;48.996;8.334;2023-04-25T05:40:33;2.75;;;1.30;;
19059;SDS011;9663;48.996;8.334;2023-04-25T05:43:00;3.38;;;1.50;;
19059;SDS011;9663;48.996;8.334;2023-04-25T05:45:25;2.35;;;1.20;;
19059;SDS011;9663;48.996;8.334;2023-04-25T05:47:51;4.57;;;1.73;;
19059;SDS011;9663;48.996;8.334;2023-04-25T05:50:17;3.03;;;1.50;;
19059;SDS011;9663;48.996;8.334;2023-04-25T05:52:43;3.15;;;1.30;;
19059;SDS011;9663;48.996;8.334;2023-04-25T05:55:08;2.47;;;1.13;;
19059;SDS011;9663;48.996;8.334;2023-04-25T05:57:34;3.55;;;1.50;;
19059;SDS011;9663;48.996;8.334;2023-04-25T06:00:00;3.17;;;1.42;;
19059;SDS011;9663;48.996;8.334;2023-04-25T06:02:26;3.10;;;1.30;;
19059;SDS011;9663;48.996;8.334;2023-04-25T06:04:52;3.67;;;1.40;;
19059;SDS011;9663;48.996;8.334;2023-04-25T06:07:18;2.97;;;1.48;;
19059;SDS011;9663;48.996;8.334;2023-04-25T06:09:45;2.72;;;1.23;;
19059;SDS011;9663;48.996;8.334;2023-04-25T06:12:10;3.00;;;1.40;;
19059;SDS011;9663;48.996;8.334;2023-04-25T06:14:36;2.88;;;1.30;;
19059;SDS011;9663;48.996;8.334;2023-04-25T06:17:02;2.70;;;1.13;;
19059;SDS011;9663;48.996;8.334;2023-04-25T06:19:33;3.63;;;1.30;;
19059;SDS011;9663;48.996;8.334;2023-04-25T06:22:00;2.97;;;1.40;;
19059;SDS011;9663;48.996;8.334;2023-04-25T06:24:27;2.67;;;1.10;;
19059;SDS011;9663;48.996;8.334;2023-04-25T06:26:53;3.10;;;1.42;;
19059;SDS011;9663;48.996;8.334;2023-04-25T06:29:19;2.78;;;1.20;;
19059;SDS011;9663;48.996;8.334;2023-04-25T06:31:45;2.78;;;1.23;;
19059;SDS011;9663;48.996;8.334;2023-04-25T06:34:11;2.97;;;1.40;;
19059;SDS011;9663;48.996;8.334;2023-04-25T06:36:37;2.75;;;1.30;;
19059;SDS011;9663;48.996;8.334;2023-04-25T06:39:02;3.15;;;1.40;;
19059;SDS011;9663;48.996;8.334;2023-04-25T06:41:28;3.08;;;1.23;;
19059;SDS011;9663;48.996;8.334;2023-04-25T06:43:54;2.88;;;1.30;;
19059;SDS011;9663;48.996;8.334;2023-04-25T06:46:19;3.03;;;1.35;;
19059;SDS011;9663;48.996;8.334;2023-04-25T06:48:45;3.10;;;1.50;;
19059;SDS011;9663;48.996;8.334;2023-04-25T06:51:11;3.40;;;1.50;;
19059;SDS011;9663;48.996;8.334;2023-04-25T06:53:38;4.03;;;1.70;;
19059;SDS011;9663;48.996;8.334;2023-04-25T06:56:07;3.28;;;1.48;;
19059;SDS011;9663;48.996;8.334;2023-04-25T06:58:32;2.92;;;1.40;;
19059;SDS011;9663;48.996;8.334;2023-04-25T07:00:58;3.00;;;1.40;;
19059;SDS011;9663;48.996;8.334;2023-04-25T07:03:23;3.25;;;1.38;;
19059;SDS011;9663;48.996;8.334;2023-04-25T07:05:49;2.50;;;1.23;;
19059;SDS011;9663;48.996;8.334;2023-04-25T07:08:15;3.42;;;1.50;;
19059;SDS011;9663;48.996;8.334;2023-04-25T07:10:42;3.15;;;1.35;;
19059;SDS011;9663;48.996;8.334;2023-04-25T07:13:08;2.47;;;1.13;;
19059;SDS011;9663;48.996;8.334;2023-04-25T07:15:33;3.17;;;1.40;;
19059;SDS011;9663;48.996;8.334;2023-04-25T07:17:59;3.78;;;1.60;;
19059;SDS011;9663;48.996;8.334;2023-04-25T07:20:25;3.53;;;1.63;;
19059;SDS011;9663;48.996;8.334;2023-04-25T07:22:52;3.13;;;1.40;;
19059;SDS011;9663;48.996;8.334;2023-04-25T07:25:18;3.25;;;1.52;;
19059;SDS011;9663;48.996;8.334;2023-04-25T07:27:45;3.63;;;1.60;;
19059;SDS011;9663;48.996;8.334;2023-04-25T07:30:11;3.30;;;1.58;;
19059;SDS011;9663;48.996;8.334;2023-04-25T07:32:37;3.45;;;1.65;;
19059;SDS011;9663;48.996;8.334;2023-04-25T07:35:04;3.75;;;1.65;;
19059;SDS011;9663;48.996;8.334;2023-04-25T07:37:31;3.17;;;1.52;;
19059;SDS011;9663;48.996;8.334;2023-04-25T07:39:58;3.88;;;1.63;;
19059;SDS011;9663;48.996;8.334;2023-04-25T07:42:24;4.25;;;1.92;;
19059;SDS011;9663;48.996;8.334;2023-04-25T07:44:49;4.47;;;2.10;;
19059;SDS011;9663;48.996;8.334;2023-04-25T07:47:16;4.20;;;2.10;;
19059;SDS011;9663;48.996;8.334;2023-04-25T07:49:44;3.47;;;1.70;;
19059;SDS011;9663;48.996;8.334;2023-04-25T07:52:10;3.13;;;1.63;;
19059;SDS011;9663;48.996;8.334;2023-04-25T07:54:36;3.70;;;1.70;;
19059;SDS011;9663;48.996;8.334;2023-04-25T07:57:02;4.18;;;1.88;;
19059;SDS011;9663;48.996;8.334;2023-04-25T07:59:27;3.85;;;1.92;;
19059;SDS011;9663;48.996;8.334;2023-04-25T08:01:53;3.35;;;1.65;;
19059;SDS011;9663;48.996;8.334;2023-04-25T08:04:19;3.80;;;1.90;;
19059;SDS011;9663;48.996;8.334;2023-04-25T08:06:44;3.92;;;1.73;;
19059;SDS011;9663;48.996;8.334;2023-04-25T08:09:10;3.67;;;1.55;;
19059;SDS011;9663;48.996;8.334;2023-04-25T08:11:36;4.25;;;1.90;;
19059;SDS011;9663;48.996;8.334;2023-04-25T08:14:02;3.70;;;1.88;;
19059;SDS011;9663;48.996;8.334;2023-04-25T08:16:28;3.63;;;1.90;;
19059;SDS011;9663;48.996;8.334;2023-04-25T08:18:54;3.70;;;1.80;;
19059;SDS011;9663;48.996;8.334;2023-04-25T08:21:19;4.78;;;1.90;;
19059;SDS011;9663;48.996;8.334;2023-04-25T08:23:45;3.78;;;1.77;;
19059;SDS011;9663;48.996;8.334;2023-04-25T08:26:11;3.85;;;1.85;;
19059;SDS011;9663;48.996;8.334;2023-04-25T08:28:37;3.75;;;1.70;;
19059;SDS011;9663;48.996;8.334;2023-04-25T08:31:03;4.40;;;2.00;;
19059;SDS011;9663;48.996;8.334;2023-04-25T08:33:29;4.13;;;1.80;;
19059;SDS011;9663;48.996;8.334;2023-04-25T08:35:55;3.85;;;2.03;;
19059;SDS011;9663;48.996;8.334;2023-04-25T08:38:20;6.15;;;1.77;;
19059;SDS011;9663;48.996;8.334;2023-04-25T08:40:49;3.63;;;1.80;;
19059;SDS011;9663;48.996;8.334;2023-04-25T08:43:19;3.90;;;1.80;;
19059;SDS011;9663;48.996;8.334;2023-04-25T08:45:45;4.50;;;1.90;;
19059;SDS011;9663;48.996;8.334;2023-04-25T08:48:12;3.87;;;2.07;;
19059;SDS011;9663;48.996;8.334;2023-04-25T08:50:50;3.78;;;1.67;;
19059;SDS011;9663;48.996;8.334;2023-04-25T08:53:22;3.53;;;1.60;;
19059;SDS011;9663;48.996;8.334;2023-04-25T08:55:51;3.55;;;1.83;;
19059;SDS011;9663;48.996;8.334;2023-04-25T08:58:20;3.85;;;1.90;;
19059;SDS011;9663;48.996;8.334;2023-04-25T09:00:47;4.00;;;1.95;;
19059;SDS011;9663;48.996;8.334;2023-04-25T09:03:14;4.20;;;2.05;;
19059;SDS011;9663;48.996;8.334;2023-04-25T09:05:41;3.75;;;1.70;;
19059;SDS011;9663;48.996;8.334;2023-04-25T09:08:07;3.80;;;1.85;;
19059;SDS011;9663;48.996;8.334;2023-04-25T09:10:34;3.67;;;1.98;;
19059;SDS011;9663;48.996;8.334;2023-04-25T09:13:09;4.22;;;2.10;;
19059;SDS011;9663;48.996;8.334;2023-04-25T09:15:50;4.30;;;2.03;;
19059;SDS011;9663;48.996;8.334;2023-04-25T09:18:22;4.00;;;2.05;;
19059;SDS011;9663;48.996;8.334;2023-04-25T09:20:53;4.88;;;2.15;;
19059;SDS011;9663;48.996;8.334;2023-04-25T09:23:21;4.18;;;2.05;;
19059;SDS011;9663;48.996;8.334;2023-04-25T09:25:48;4.60;;;2.20;;
19059;SDS011;9663;48.996;8.334;2023-04-25T09:28:25;4.40;;;2.15;;
19059;SDS011;9663;48.996;8.334;2023-04-25T09:30:55;3.85;;;1.92;;
19059;SDS011;9663;48.996;8.334;2023-04-25T09:33:29;4.30;;;2.20;;
19059;SDS011;9663;48.996;8.334;2023-04-25T09:36:08;3.95;;;2.00;;
19059;SDS011;9663;48.996;8.334;2023-04-25T09:38:43;5.38;;;2.15;;
19059;SDS011;9663;48.996;8.334;2023-04-25T09:41:10;4.30;;;1.85;;
19059;SDS011;9663;48.996;8.334;2023-04-25T09:43:37;3.92;;;1.92;;
19059;SDS011;9663;48.996;8.334;2023-04-25T09:46:08;4.82;;;2.33;;
19059;SDS011;9663;48.996;8.334;2023-04-25T09:48:35;4.32;;;2.30;;
19059;SDS011;9663;48.996;8.334;2023-04-25T09:51:08;4.10;;;2.40;;
19059;SDS011;9663;48.996;8.334;2023-04-25T09:53:39;4.97;;;2.95;;
19059;SDS011;9663;48.996;8.334;2023-04-25T09:56:07;4.50;;;2.63;;
19059;SDS011;9663;48.996;8.334;2023-04-25T09:58:36;4.22;;;2.65;;
19059;SDS011;9663;48.996;8.334;2023-04-25T10:01:05;5.40;;;2.40;;
19059;SDS011;9663;48.996;8.334;2023-04-25T10:03:33;4.90;;;2.70;;
19059;SDS011;9663;48.996;8.334;2023-04-25T10:06:08;5.38;;;2.72;;
19059;SDS011;9663;48.996;8.334;2023-04-25T10:08:43;5.05;;;2.80;;
19059;SDS011;9663;48.996;8.334;2023-04-25T10:11:09;5.07;;;2.78;;
19059;SDS011;9663;48.996;8.334;2023-04-25T10:13:35;6.13;;;3.17;;
19059;SDS011;9663;48.996;8.334;2023-04-25T10:16:03;5.03;;;2.50;;
19059;SDS011;9663;48.996;8.334;2023-04-25T10:18:30;4.43;;;2.13;;
19059;SDS011;9663;48.996;8.334;2023-04-25T10:21:01;5.30;;;2.45;;
19059;SDS011;9663;48.996;8.334;2023-04-25T10:23:29;4.47;;;2.38;;
19059;SDS011;9663;48.996;8.334;2023-04-25T10:25:56;5.05;;;2.60;;
19059;SDS011;9663;48.996;8.334;2023-04-25T10:28:23;5.13;;;2.40;;
19059;SDS011;9663;48.996;8.334;2023-04-25T10:30:59;4.88;;;2.47;;
19059;SDS011;9663;48.996;8.334;2023-04-25T10:36:14;4.97;;;2.65;;
19059;SDS011;9663;48.996;8.334;2023-04-25T10:38:44;5.22;;;2.60;;
19059;SDS011;9663;48.996;8.334;2023-04-25T10:41:11;5.22;;;2.70;;
19059;SDS011;9663;48.996;8.334;2023-04-25T10:43:42;5.38;;;2.63;;
19059;SDS011;9663;48.996;8.334;2023-04-25T10:46:18;4.82;;;2.50;;
19059;SDS011;9663;48.996;8.334;2023-04-25T10:48:50;5.15;;;2.58;;
19059;SDS011;9663;48.996;8.334;2023-04-25T10:54:03;4.93;;;2.60;;
19059;SDS011;9663;48.996;8.334;2023-04-25T10:56:36;4.50;;;2.47;;
19059;SDS011;9663;48.996;8.334;2023-04-25T10:59:09;5.05;;;2.70;;
19059;SDS011;9663;48.996;8.334;2023-04-25T11:01:44;5.35;;;2.70;;
19059;SDS011;9663;48.996;8.334;2023-04-25T11:04:23;9.35;;;2.78;;
19059;SDS011;9663;48.996;8.334;2023-04-25T11:09:32;4.72;;;2.55;;
19059;SDS011;9663;48.996;8.334;2023-04-25T11:11:59;5.00;;;2.83;;
19059;SDS011;9663;48.996;8.334;2023-04-25T11:14:26;5.18;;;2.70;;
19059;SDS011;9663;48.996;8.334;2023-04-25T11:16:55;5.20;;;2.70;;
19059;SDS011;9663;48.996;8.334;2023-04-25T11:19:25;5.80;;;2.70;;
19059;SDS011;9663;48.996;8.334;2023-04-25T11:21:56;4.53;;;2.30;;
19059;SDS011;9663;48.996;8.334;2023-04-25T11:24:29;4.05;;;1.98;;
19059;SDS011;9663;48.996;8.334;2023-04-25T11:27:00;5.03;;;2.00;;
19059;SDS011;9663;48.996;8.334;2023-04-25T11:29:31;4.80;;;2.13;;
19059;SDS011;9663;48.996;8.334;2023-04-25T11:31:58;4.00;;;1.90;;
19059;SDS011;9663;48.996;8.334;2023-04-25T11:34:25;4.97;;;2.00;;
19059;SDS011;9663;48.996;8.334;2023-04-25T11:36:55;5.03;;;2.30;;
19059;SDS011;9663;48.996;8.334;2023-04-25T11:39:23;4.10;;;2.13;;
19059;SDS011;9663;48.996;8.334;2023-04-25T11:41:50;3.72;;;1.40;;
19059;SDS011;9663;48.996;8.334;2023-04-25T11:44:16;4.45;;;1.70;;
19059;SDS011;9663;48.996;8.334;2023-04-25T11:46:43;3.78;;;1.67;;
19059;SDS011;9663;48.996;8.334;2023-04-25T11:49:10;3.90;;;1.70;;
19059;SDS011;9663;48.996;8.334;2023-04-25T11:51:39;3.83;;;1.77;;
19059;SDS011;9663;48.996;8.334;2023-04-25T11:54:05;3.40;;;1.60;;
19059;SDS011;9663;48.996;8.334;2023-04-25T11:56:32;4.05;;;1.60;;
19059;SDS011;9663;48.996;8.334;2023-04-25T12:01:29;3.53;;;1.70;;
19059;SDS011;9663;48.996;8.334;2023-04-25T12:03:58;3.80;;;1.65;;
19059;SDS011;9663;48.996;8.334;2023-04-25T12:06:40;3.25;;;1.50;;
19059;SDS011;9663;48.996;8.334;2023-04-25T12:09:09;3.60;;;1.45;;
19059;SDS011;9663;48.996;8.334;2023-04-25T12:11:45;3.40;;;1.52;;
19059;SDS011;9663;48.996;8.334;2023-04-25T12:14:20;4.07;;;1.60;;
19059;SDS011;9663;48.996;8.334;2023-04-25T12:16:52;3.15;;;1.40;;
19059;SDS011;9663;48.996;8.334;2023-04-25T12:19:20;3.63;;;1.70;;
19059;SDS011;9663;48.996;8.334;2023-04-25T12:21:46;2.83;;;1.38;;
19059;SDS011;9663;48.996;8.334;2023-04-25T12:24:24;3.50;;;1.33;;
19059;SDS011;9663;48.996;8.334;2023-04-25T12:26:59;3.88;;;1.23;;
19059;SDS011;9663;48.996;8.334;2023-04-25T12:29:30;3.00;;;1.40;;
19059;SDS011;9663;48.996;8.334;2023-04-25T12:31:58;2.60;;;1.20;;
19059;SDS011;9663;48.996;8.334;2023-04-25T12:34:26;3.08;;;1.23;;
19059;SDS011;9663;48.996;8.334;2023-04-25T12:36:53;2.58;;;1.27;;
19059;SDS011;9663;48.996;8.334;2023-04-25T12:39:20;2.72;;;1.30;;
19059;SDS011;9663;48.996;8.334;2023-04-25T12:41:49;3.10;;;1.40;;
19059;SDS011;9663;48.996;8.334;2023-04-25T12:44:17;2.97;;;1.35;;
19059;SDS011;9663;48.996;8.334;2023-04-25T12:46:43;2.80;;;1.20;;
19059;SDS011;9663;48.996;8.334;2023-04-25T12:49:08;2.70;;;1.20;;
19059;SDS011;9663;48.996;8.334;2023-04-25T12:51:35;2.85;;;1.30;;
19059;SDS011;9663;48.996;8.334;2023-04-25T12:54:02;3.00;;;1.30;;
19059;SDS011;9663;48.996;8.334;2023-04-25T12:56:30;2.83;;;1.30;;
19059;SDS011;9663;48.996;8.334;2023-04-25T12:58:56;3.35;;;1.40;;
19059;SDS011;9663;48.996;8.334;2023-04-25T13:01:22;3.60;;;1.30;;
19059;SDS011;9663;48.996;8.334;2023-04-25T13:03:49;3.50;;;1.20;;
19059;SDS011;9663;48.996;8.334;2023-04-25T13:06:15;3.20;;;1.25;;
19059;SDS011;9663;48.996;8.334;2023-04-25T13:08:42;2.70;;;1.17;;
19059;SDS011;9663;48.996;8.334;2023-04-25T13:11:08;2.33;;;1.00;;
19059;SDS011;9663;48.996;8.334;2023-04-25T13:13:34;2.60;;;1.20;;
19059;SDS011;9663;48.996;8.334;2023-04-25T13:16:01;3.47;;;1.48;;
19059;SDS011;9663;48.996;8.334;2023-04-25T13:18:27;2.53;;;1.20;;
19059;SDS011;9663;48.996;8.334;2023-04-25T13:20:54;2.58;;;1.10;;
19059;SDS011;9663;48.996;8.334;2023-04-25T13:23:20;2.92;;;1.10;;
19059;SDS011;9663;48.996;8.334;2023-04-25T13:25:47;2.63;;;1.20;;
19059;SDS011;9663;48.996;8.334;2023-04-25T13:28:12;3.10;;;1.10;;
19059;SDS011;9663;48.996;8.334;2023-04-25T13:30:39;2.30;;;1.13;;
19059;SDS011;9663;48.996;8.334;2023-04-25T13:33:05;2.35;;;1.20;;
19059;SDS011;9663;48.996;8.334;2023-04-25T13:35:32;2.80;;;1.40;;
19059;SDS011;9663;48.996;8.334;2023-04-25T13:38:00;2.83;;;1.17;;
19059;SDS011;9663;48.996;8.334;2023-04-25T13:40:25;2.60;;;1.10;;
19059;SDS011;9663;48.996;8.334;2023-04-25T13:42:52;2.60;;;1.00;;
19059;SDS011;9663;48.996;8.334;2023-04-25T13:45:18;2.35;;;1.10;;
19059;SDS011;9663;48.996;8.334;2023-04-25T13:47:45;2.85;;;1.10;;
19059;SDS011;9663;48.996;8.334;2023-04-25T13:50:12;3.00;;;1.25;;
19059;SDS011;9663;48.996;8.334;2023-04-25T13:52:39;2.20;;;1.00;;
19059;SDS011;9663;48.996;8.334;2023-04-25T13:55:05;2.53;;;1.10;;
19059;SDS011;9663;48.996;8.334;2023-04-25T13:57:33;2.45;;;1.10;;
19059;SDS011;9663;48.996;8.334;2023-04-25T14:00:00;3.53;;;1.50;;
19059;SDS011;9663;48.996;8.334;2023-04-25T14:02:31;2.45;;;1.10;;
19059;SDS011;9663;48.996;8.334;2023-04-25T14:04:57;2.80;;;1.10;;
19059;SDS011;9663;48.996;8.334;2023-04-25T14:07:23;2.60;;;1.00;;
19059;SDS011;9663;48.996;8.334;2023-04-25T14:09:49;3.25;;;1.30;;
19059;SDS011;9663;48.996;8.334;2023-04-25T14:12:15;2.05;;;1.00;;
19059;SDS011;9663;48.996;8.334;2023-04-25T14:14:41;1.92;;;0.90;;
19059;SDS011;9663;48.996;8.334;2023-04-25T14:17:07;2.05;;;0.95;;
19059;SDS011;9663;48.996;8.334;2023-04-25T14:19:34;2.25;;;1.02;;
19059;SDS011;9663;48.996;8.334;2023-04-25T14:21:59;2.83;;;1.00;;
19059;SDS011;9663;48.996;8.334;2023-04-25T14:24:25;2.28;;;1.00;;
19059;SDS011;9663;48.996;8.334;2023-04-25T14:26:51;2.25;;;1.08;;
19059;SDS011;9663;48.996;8.334;2023-04-25T14:29:17;2.50;;;1.00;;
19059;SDS011;9663;48.996;8.334;2023-04-25T14:31:43;2.35;;;1.10;;
19059;SDS011;9663;48.996;8.334;2023-04-25T14:34:09;2.38;;;1.00;;
19059;SDS011;9663;48.996;8.334;2023-04-25T14:36:36;3.15;;;1.17;;
19059;SDS011;9663;48.996;8.334;2023-04-25T14:39:02;3.30;;;1.23;;
19059;SDS011;9663;48.996;8.334;2023-04-25T14:41:30;2.53;;;1.10;;
19059;SDS011;9663;48.996;8.334;2023-04-25T14:43:55;2.88;;;1.15;;
19059;SDS011;9663;48.996;8.334;2023-04-25T14:46:21;2.55;;;1.20;;
19059;SDS011;9663;48.996;8.334;2023-04-25T14:48:48;2.92;;;1.00;;
19059;SDS011;9663;48.996;8.334;2023-04-25T14:51:15;2.17;;;1.05;;
19059;SDS011;9663;48.996;8.334;2023-04-25T14:53:40;2.75;;;1.10;;
19059;SDS011;9663;48.996;8.334;2023-04-25T14:56:06;2.78;;;1.10;;
19059;SDS011;9663;48.996;8.334;2023-04-25T14:58:33;2.17;;;1.00;;
19059;SDS011;9663;48.996;8.334;2023-04-25T15:00:59;3.00;;;1.20;;
19059;SDS011;9663;48.996;8.334;2023-04-25T15:03:25;4.47;;;1.20;;
19059;SDS011;9663;48.996;8.334;2023-04-25T15:05:52;2.65;;;1.10;;
19059;SDS011;9663;48.996;8.334;2023-04-25T15:08:20;3.20;;;1.23;;
19059;SDS011;9663;48.996;8.334;2023-04-25T15:10:46;2.95;;;1.20;;